Time;durP1;ratioP1;P1;durP2;ratioP2;P2;SDS_P1;SDS_P2;PMS_P1;PMS_P2;Temp;Humidity;BMP_temperature;BMP_pressure;BME280_temperature;BME280_humidity;BME280_pressure;Samples;Min_cycle;Max_cycle;Signal;HPM_P1;HPM_P2
2021/11/13 00:00:46;;;;;;;29.77;12.00;;;2.00;96.30;;;;;;4994188;28;20272;-80
2021/11/13 00:03:12;;;;;;;24.77;13.60;;;1.90;96.30;;;;;;4976196;28;20204;-80
2021/11/13 00:05:38;;;;;;;25.77;11.90;;;1.90;96.30;;;;;;4995712;28;20440;-79
2021/11/13 00:08:04;;;;;;;28.97;15.43;;;1.90;96.30;;;;;;4995485;28;20787;-80
2021/11/13 00:10:31;;;;;;;21.23;11.80;;;1.80;96.30;;;;;;4978424;28;20417;-80
2021/11/13 00:12:59;;;;;;;24.37;12.50;;;1.80;96.30;;;;;;4976527;28;20478;-80
2021/11/13 00:15:25;;;;;;;35.17;15.83;;;1.80;96.30;;;;;;4994300;28;20421;-80
2021/11/13 00:17:51;;;;;;;25.47;12.63;;;1.90;96.30;;;;;;4994420;28;20419;-80
2021/11/13 00:20:18;;;;;;;22.87;12.63;;;1.90;96.30;;;;;;4994000;28;20417;-81
2021/11/13 00:22:44;;;;;;;25.90;12.50;;;1.90;96.30;;;;;;4976090;28;20761;-79
2021/11/13 00:25:10;;;;;;;30.83;16.50;;;2.00;96.30;;;;;;4994254;28;20499;-80
2021/11/13 00:27:36;;;;;;;22.93;12.53;;;1.90;96.30;;;;;;4976766;28;20424;-80
2021/11/13 00:30:04;;;;;;;19.90;11.27;;;2.00;96.30;;;;;;4976366;28;20422;-80
2021/11/13 00:32:30;;;;;;;27.20;14.93;;;2.00;96.30;;;;;;4993773;28;20405;-80
2021/11/13 00:34:55;;;;;;;20.77;10.50;;;2.00;96.30;;;;;;4976613;28;20444;-79
2021/11/13 00:37:21;;;;;;;20.67;10.87;;;2.00;96.30;;;;;;4994818;28;20605;-80
2021/11/13 00:39:46;;;;;;;20.27;11.30;;;2.00;96.30;;;;;;4976922;28;20181;-80
2021/11/13 00:42:12;;;;;;;21.30;11.43;;;2.00;96.30;;;;;;4994540;28;20723;-80
2021/11/13 00:44:37;;;;;;;20.00;10.93;;;2.00;96.30;;;;;;4976853;28;20210;-80
2021/11/13 00:47:03;;;;;;;26.50;12.80;;;2.00;96.30;;;;;;4976556;28;20166;-80
2021/11/13 00:49:29;;;;;;;17.33;10.07;;;2.10;96.30;;;;;;4993771;28;20184;-80
2021/11/13 00:51:55;;;;;;;18.00;11.13;;;2.10;96.30;;;;;;4993053;28;20408;-80
2021/11/13 00:54:23;;;;;;;19.50;10.17;;;2.10;96.30;;;;;;4993558;28;20500;-80
2021/11/13 00:56:49;;;;;;;23.70;12.17;;;2.10;96.30;;;;;;4975940;28;20173;-80
2021/11/13 00:59:15;;;;;;;16.43;9.47;;;2.10;96.30;;;;;;4979437;28;20499;-79
2021/11/13 05:02:29;;;;;;;12.43;7.60;;;2.20;96.30;;;;;;5105260;23;20518;-81
2021/11/13 05:04:54;;;;;;;11.67;6.97;;;2.20;96.30;;;;;;4996451;28;20457;-82
2021/11/13 05:07:22;;;;;;;10.83;6.73;;;2.20;96.30;;;;;;4996780;28;20170;-81
2021/11/13 05:09:47;;;;;;;10.77;7.40;;;2.20;96.30;;;;;;4996887;28;20178;-82
2021/11/13 05:12:13;;;;;;;13.03;8.17;;;2.20;96.30;;;;;;4995884;28;20518;-81
2021/11/13 05:14:38;;;;;;;12.73;7.60;;;2.20;96.30;;;;;;4978797;28;20209;-83
2021/11/13 05:17:04;;;;;;;14.40;8.47;;;2.20;96.30;;;;;;5006116;28;20186;-81
2021/11/13 05:19:29;;;;;;;9.60;6.83;;;2.20;96.30;;;;;;4989760;28;20228;-83
2021/11/13 05:21:55;;;;;;;11.90;7.00;;;2.20;96.30;;;;;;4977013;28;20681;-82
2021/11/13 05:24:20;;;;;;;11.63;7.53;;;2.30;96.30;;;;;;4961037;28;20209;-82
2021/11/13 05:26:46;;;;;;;12.67;7.07;;;2.30;96.30;;;;;;4960588;28;20178;-83
2021/11/13 05:29:11;;;;;;;12.03;6.50;;;2.30;96.30;;;;;;4960179;28;20174;-82
2021/11/13 05:31:37;;;;;;;12.67;7.93;;;2.30;96.30;;;;;;4959911;28;20269;-82
2021/11/13 05:34:03;;;;;;;11.10;6.80;;;2.30;96.30;;;;;;4960121;28;20635;-82
2021/11/13 05:36:28;;;;;;;10.73;6.80;;;2.30;96.30;;;;;;4959443;28;20201;-82
2021/11/13 05:38:53;;;;;;;10.30;6.93;;;2.40;96.30;;;;;;4976891;28;20593;-82
2021/11/13 05:41:19;;;;;;;11.87;6.93;;;2.50;96.30;;;;;;4959884;28;20213;-82
2021/11/13 05:43:44;;;;;;;9.03;5.43;;;2.40;96.30;;;;;;4980469;28;20257;-82
2021/11/13 05:46:10;;;;;;;10.00;6.10;;;2.40;96.30;;;;;;4964856;28;20174;-82
2021/11/13 05:48:35;;;;;;;10.97;6.53;;;2.50;96.30;;;;;;4964813;28;20269;-82
2021/11/13 05:51:01;;;;;;;8.50;5.97;;;2.50;96.30;;;;;;4979981;28;20670;-82
2021/11/13 05:53:26;;;;;;;10.77;6.33;;;2.50;96.30;;;;;;4964120;28;20182;-82
2021/11/13 05:55:52;;;;;;;10.23;6.33;;;2.50;96.30;;;;;;4981041;28;20697;-82
2021/11/13 05:58:18;;;;;;;10.63;6.87;;;2.40;96.30;;;;;;4981122;28;20170;-82
2021/11/13 06:00:45;;;;;;;8.43;6.43;;;2.40;96.30;;;;;;4963071;28;20217;-82
2021/11/13 06:03:11;;;;;;;10.27;6.73;;;2.40;96.30;;;;;;4962246;28;20409;-82
2021/11/13 06:05:36;;;;;;;10.63;6.10;;;2.50;96.30;;;;;;4980346;28;20473;-83
2021/11/13 06:08:02;;;;;;;7.87;6.13;;;2.50;96.30;;;;;;4979766;28;20182;-82
2021/11/13 06:10:27;;;;;;;7.00;4.77;;;2.50;96.30;;;;;;4962914;28;20317;-83
2021/11/13 06:12:53;;;;;;;10.00;5.93;;;2.50;96.30;;;;;;4962387;28;20182;-82
2021/11/13 06:15:18;;;;;;;8.97;5.47;;;2.60;96.30;;;;;;4977684;28;20202;-83
2021/11/13 06:17:45;;;;;;;8.67;6.00;;;2.60;96.30;;;;;;4960093;28;20182;-83
2021/11/13 06:20:11;;;;;;;8.40;5.07;;;2.60;96.30;;;;;;4977458;28;20647;-82
2021/11/13 06:22:38;;;;;;;8.03;5.40;;;2.60;96.30;;;;;;4958708;28;20849;-82
2021/11/13 06:25:06;;;;;;;11.57;6.50;;;2.60;96.30;;;;;;4959464;28;20464;-83
2021/11/13 06:27:32;;;;;;;8.70;5.67;;;2.60;96.30;;;;;;4959716;28;20794;-82
2021/11/13 06:29:57;;;;;;;8.33;5.90;;;2.60;96.30;;;;;;4973617;28;20420;-81
2021/11/13 06:32:23;;;;;;;8.77;5.90;;;2.60;96.30;;;;;;4964384;28;20194;-82
2021/11/13 06:34:48;;;;;;;8.80;6.43;;;2.60;96.30;;;;;;4991401;28;20254;-83
2021/11/13 06:37:14;;;;;;;6.43;5.20;;;2.60;96.30;;;;;;4997811;28;20188;-82
2021/11/13 06:39:39;;;;;;;10.23;5.70;;;2.70;96.30;;;;;;5014241;28;20181;-83
2021/11/13 06:42:06;;;;;;;10.90;5.87;;;2.70;96.30;;;;;;4999123;28;20197;-82
2021/11/13 06:44:31;;;;;;;25.10;15.80;;;2.70;96.30;;;;;;5000057;28;20612;-82
2021/11/13 06:46:57;;;;;;;20.30;14.43;;;2.80;96.30;;;;;;5015969;28;20491;-82
2021/11/13 06:49:23;;;;;;;7.20;5.17;;;2.80;96.30;;;;;;5000563;28;20668;-83
2021/11/13 06:51:48;;;;;;;9.43;6.13;;;2.80;96.30;;;;;;4997047;28;20449;-82
2021/11/13 06:54:14;;;;;;;10.30;7.00;;;2.90;96.30;;;;;;4980290;28;20178;-82
2021/11/13 06:56:41;;;;;;;7.43;5.30;;;2.90;96.30;;;;;;4997496;28;20177;-82
2021/11/13 06:59:07;;;;;;;8.10;5.40;;;2.90;96.30;;;;;;4992698;28;20230;-82
2021/11/13 07:01:32;;;;;;;8.30;6.07;;;2.90;96.30;;;;;;4997714;28;20467;-82
2021/11/13 07:03:58;;;;;;;5.77;4.53;;;2.90;96.30;;;;;;5016870;28;20196;-82
2021/11/13 07:06:23;;;;;;;5.07;4.57;;;3.10;96.30;;;;;;5017123;28;20528;-82
2021/11/13 07:08:49;;;;;;;7.33;5.30;;;3.10;96.30;;;;;;5017362;28;20173;-82
2021/11/13 07:11:14;;;;;;;6.07;4.40;;;3.10;96.30;;;;;;5003027;28;20684;-82
2021/11/13 07:13:40;;;;;;;8.10;4.90;;;3.20;96.30;;;;;;5013922;28;20181;-81
2021/11/13 07:16:06;;;;;;;4.70;4.23;;;3.20;96.30;;;;;;4997408;28;20181;-82
2021/11/13 07:18:32;;;;;;;5.93;4.03;;;3.20;96.30;;;;;;4997594;28;20177;-82
2021/11/13 07:21:01;;;;;;;6.03;4.97;;;3.20;96.30;;;;;;4990571;28;20834;-82
2021/11/13 07:23:29;;;;;;;7.93;5.30;;;3.30;96.30;;;;;;4998393;28;20181;-82
2021/11/13 07:25:55;;;;;;;6.40;4.87;;;3.30;96.30;;;;;;4998498;28;20427;-82
2021/11/13 07:28:34;;;;;;;6.93;4.30;;;3.40;96.30;;;;;;4997536;28;20431;-82
2021/11/13 07:30:59;;;;;;;9.13;6.07;;;3.50;96.30;;;;;;5015365;28;20473;-82
2021/11/13 07:33:25;;;;;;;5.00;3.97;;;3.50;96.30;;;;;;4985932;28;20437;-82
2021/11/13 07:35:50;;;;;;;5.20;4.20;;;3.50;96.30;;;;;;5015514;28;20173;-82
2021/11/13 07:38:16;;;;;;;5.90;5.10;;;3.60;96.30;;;;;;5000801;28;20179;-82
2021/11/13 07:40:41;;;;;;;6.80;5.20;;;3.70;96.30;;;;;;4975911;28;20246;-82
2021/11/13 07:43:07;;;;;;;8.23;4.70;;;3.80;96.30;;;;;;4958793;28;20181;-82
2021/11/13 07:45:33;;;;;;;6.40;4.60;;;3.80;96.30;;;;;;4977470;28;20248;-82
2021/11/13 07:47:59;;;;;;;7.03;5.00;;;3.90;96.30;;;;;;4960318;28;20178;-83
2021/11/13 07:50:24;;;;;;;9.10;5.10;;;4.00;96.30;;;;;;4976948;28;20192;-83
2021/11/13 07:52:50;;;;;;;6.30;5.13;;;4.20;96.30;;;;;;4960373;28;20984;-82
2021/11/13 07:55:18;;;;;;;9.53;4.80;;;4.30;96.30;;;;;;4959200;28;20178;-82
2021/11/13 07:57:45;;;;;;;8.33;4.90;;;4.50;96.30;;;;;;4958147;28;20182;-82
2021/11/13 08:00:14;;;;;;;6.17;4.73;;;4.60;96.30;;;;;;4958355;28;20476;-82
2021/11/13 08:02:40;;;;;;;5.53;4.63;;;4.60;96.30;;;;;;4958093;28;20477;-83
2021/11/13 08:05:07;;;;;;;6.50;4.33;;;4.70;96.30;;;;;;4976634;28;20457;-82
2021/11/13 08:07:33;;;;;;;6.53;4.90;;;4.80;96.30;;;;;;4958681;28;20429;-82
2021/11/13 08:09:58;;;;;;;5.23;4.73;;;4.70;96.30;;;;;;4959089;28;20421;-82
2021/11/13 08:12:23;;;;;;;5.80;4.57;;;4.80;96.30;;;;;;4976399;28;20202;-82
2021/11/13 08:14:49;;;;;;;7.00;4.37;;;4.80;96.30;;;;;;4958819;28;20839;-82
2021/11/13 08:17:15;;;;;;;5.33;4.43;;;4.90;96.30;;;;;;4976792;28;20182;-83
2021/11/13 08:19:40;;;;;;;6.23;4.47;;;5.00;96.30;;;;;;4976856;28;20162;-82
2021/11/13 08:22:06;;;;;;;9.80;5.80;;;5.20;96.30;;;;;;4958596;28;20202;-82
2021/11/13 08:24:32;;;;;;;8.10;6.30;;;5.40;96.30;;;;;;4958909;28;20252;-82
2021/11/13 08:26:57;;;;;;;11.03;7.90;;;5.50;96.30;;;;;;4975993;28;20174;-82
2021/11/13 08:29:23;;;;;;;8.93;6.50;;;5.70;96.30;;;;;;4976364;28;20213;-82
2021/11/13 08:31:48;;;;;;;8.03;6.30;;;5.70;96.30;;;;;;4976107;28;20202;-83
2021/11/13 08:34:14;;;;;;;6.60;4.43;;;5.70;96.30;;;;;;4959638;28;20189;-82
2021/11/13 08:36:40;;;;;;;6.03;4.00;;;5.70;96.30;;;;;;4977560;28;20638;-82
2021/11/13 08:39:07;;;;;;;9.23;6.60;;;5.70;96.30;;;;;;4959893;28;20310;-83
2021/11/13 08:41:33;;;;;;;7.20;5.43;;;5.80;96.30;;;;;;4960008;28;20201;-82
2021/11/13 08:43:59;;;;;;;7.67;5.80;;;6.00;96.30;;;;;;4959360;28;20883;-83
2021/11/13 08:46:24;;;;;;;8.83;5.40;;;6.30;96.30;;;;;;4959526;28;20314;-82
2021/11/13 08:48:50;;;;;;;6.93;5.00;;;6.50;96.30;;;;;;4959091;28;20217;-83
2021/11/13 08:51:16;;;;;;;6.50;4.90;;;6.60;96.30;;;;;;4958467;28;20202;-82
2021/11/13 08:53:53;;;;;;;8.67;5.80;;;6.70;96.30;;;;;;5000495;28;20456;-83
2021/11/13 08:56:20;;;;;;;9.40;5.57;;;6.70;96.30;;;;;;4994193;28;20401;-82
2021/11/13 08:58:45;;;;;;;7.80;5.50;;;6.70;96.30;;;;;;4996897;28;20856;-82
2021/11/13 09:01:11;;;;;;;6.97;5.00;;;6.90;96.30;;;;;;4991874;28;20496;-80
2021/11/13 09:03:39;;;;;;;8.60;5.37;;;7.00;96.30;;;;;;4957119;28;20236;-80
2021/11/13 09:06:10;;;;;;;6.10;4.57;;;7.20;96.30;;;;;;4974123;28;20171;-80
2021/11/13 09:08:38;;;;;;;8.10;5.80;;;7.30;96.30;;;;;;4974543;28;20440;-79
2021/11/13 09:11:07;;;;;;;8.27;5.73;;;7.30;96.30;;;;;;4973157;28;20430;-79
2021/11/13 09:13:33;;;;;;;7.40;5.40;;;7.10;96.30;;;;;;4956242;28;20447;-79
2021/11/13 09:16:03;;;;;;;6.87;4.90;;;7.00;96.30;;;;;;4975592;28;20445;-79
2021/11/13 09:18:30;;;;;;;8.40;5.23;;;7.00;96.30;;;;;;4975376;28;20437;-80
2021/11/13 09:20:56;;;;;;;7.53;6.00;;;7.00;96.30;;;;;;4959243;28;20552;-79
2021/11/13 09:23:22;;;;;;;8.17;6.00;;;6.90;96.30;;;;;;4959403;28;20482;-79
2021/11/13 09:25:48;;;;;;;7.53;5.60;;;7.00;96.30;;;;;;4977543;28;20300;-79
2021/11/13 09:28:14;;;;;;;8.50;5.60;;;7.00;96.30;;;;;;4976841;28;20177;-77
2021/11/13 09:30:40;;;;;;;11.43;5.93;;;7.10;96.30;;;;;;5015526;28;20492;-77
2021/11/13 09:33:07;;;;;;;7.27;5.40;;;6.90;96.30;;;;;;5014789;28;20412;-77
2021/11/13 09:35:34;;;;;;;10.43;6.63;;;7.00;96.30;;;;;;5015403;28;20855;-79
2021/11/13 09:38:00;;;;;;;8.40;5.83;;;6.90;96.30;;;;;;4997771;28;20415;-78
2021/11/13 09:40:27;;;;;;;8.90;6.30;;;6.90;96.30;;;;;;5015334;28;20422;-77
2021/11/13 09:42:57;;;;;;;7.70;6.13;;;6.90;96.30;;;;;;5014925;28;20427;-79
2021/11/13 09:45:23;;;;;;;9.80;6.60;;;7.00;96.30;;;;;;4997764;28;20506;-80
2021/11/13 09:47:52;;;;;;;11.23;6.67;;;6.80;96.30;;;;;;5015580;28;20442;-79
2021/11/13 09:50:19;;;;;;;11.83;7.10;;;6.90;96.30;;;;;;5015840;28;20408;-79
2021/11/13 09:52:45;;;;;;;8.17;7.23;;;6.90;96.30;;;;;;5016972;28;20911;-80
2021/11/13 09:55:13;;;;;;;12.17;8.33;;;6.90;96.30;;;;;;5001043;28;20415;-80
2021/11/13 09:57:40;;;;;;;9.90;7.60;;;7.10;96.30;;;;;;4998300;28;20423;-78
2021/11/13 10:00:11;;;;;;;13.93;9.50;;;7.20;96.30;;;;;;5014970;28;20422;-78
2021/11/13 10:02:38;;;;;;;8.10;6.13;;;7.20;96.30;;;;;;4996670;28;20995;-79
2021/11/13 10:05:04;;;;;;;9.30;6.20;;;7.20;96.30;;;;;;5015354;28;20555;-80
2021/11/13 10:07:32;;;;;;;8.30;6.80;;;7.20;96.30;;;;;;4997453;28;20447;-80
2021/11/13 10:09:58;;;;;;;11.17;7.40;;;7.50;96.30;;;;;;4997703;28;20507;-80
2021/11/13 10:12:39;;;;;;;12.03;7.23;;;7.40;96.30;;;;;;5014500;28;21125;-79
2021/11/13 10:15:43;;;;;;;9.13;7.03;;;7.50;96.30;;;;;;5015512;28;20514;-80
2021/11/13 10:18:20;;;;;;;10.63;7.63;;;7.50;96.30;;;;;;4986496;28;20420;-80
2021/11/13 10:20:57;;;;;;;9.50;6.67;;;7.40;96.30;;;;;;4978556;28;20448;-81
2021/11/13 10:23:25;;;;;;;12.53;7.63;;;7.60;96.30;;;;;;4977813;28;20478;-80
2021/11/13 10:26:13;;;;;;;9.57;7.10;;;7.60;96.30;;;;;;4978207;28;20499;-80
2021/11/13 10:28:42;;;;;;;11.13;7.77;;;7.60;96.30;;;;;;4978104;28;20917;-80
2021/11/13 10:31:22;;;;;;;10.20;6.93;;;7.70;96.30;;;;;;4976762;28;20956;-80
2021/11/13 10:33:48;;;;;;;10.40;6.60;;;7.80;96.30;;;;;;4978088;28;20971;-80
2021/11/13 10:36:20;;;;;;;8.97;7.00;;;7.90;96.30;;;;;;4996586;28;20421;-84
2021/11/13 10:38:49;;;;;;;11.23;7.70;;;8.00;96.30;;;;;;4981245;28;20435;-80
2021/11/13 10:41:15;;;;;;;9.73;8.07;;;8.00;96.30;;;;;;4982721;28;20437;-80
2021/11/13 10:43:42;;;;;;;10.33;7.00;;;8.10;96.30;;;;;;4981846;28;20421;-78
2021/11/13 10:46:17;;;;;;;8.13;6.37;;;8.10;96.30;;;;;;5000760;28;20512;-80
2021/11/13 10:48:47;;;;;;;7.77;6.10;;;8.00;96.30;;;;;;5003052;28;20900;-81
2021/11/13 10:51:21;;;;;;;9.20;6.27;;;8.00;96.30;;;;;;4993818;28;20443;-78
2021/11/13 10:53:48;;;;;;;12.20;7.23;;;8.00;96.30;;;;;;4977063;28;20421;-78
2021/11/13 10:56:15;;;;;;;11.80;7.00;;;8.10;96.30;;;;;;4976501;28;20421;-78
2021/11/13 10:58:57;;;;;;;10.80;7.30;;;8.10;96.30;;;;;;4981325;28;20444;-78
2021/11/13 11:01:22;;;;;;;17.00;7.80;;;8.10;96.30;;;;;;4982620;28;20464;-79
2021/11/13 11:03:49;;;;;;;8.87;6.93;;;8.00;96.30;;;;;;4986657;28;20413;-79
2021/11/13 11:06:21;;;;;;;10.80;7.13;;;8.10;96.30;;;;;;5000318;28;20176;-79
2021/11/13 11:08:47;;;;;;;13.93;8.47;;;8.20;96.30;;;;;;4967365;28;20414;-78
2021/11/13 11:11:28;;;;;;;14.27;9.13;;;8.30;96.30;;;;;;4975305;28;20464;-79
2021/11/13 11:14:00;;;;;;;16.70;9.20;;;8.30;96.30;;;;;;4975442;28;20177;-77
2021/11/13 11:16:31;;;;;;;9.70;7.87;;;8.40;96.30;;;;;;4957970;28;20414;-78
2021/11/13 11:19:00;;;;;;;12.80;7.90;;;8.40;96.30;;;;;;4957522;28;20406;-78
2021/11/13 11:21:47;;;;;;;15.70;8.67;;;8.40;96.30;;;;;;4956905;28;20442;-79
2021/11/13 11:24:17;;;;;;;13.13;8.23;;;8.40;96.30;;;;;;4957691;28;20471;-79
2021/11/13 11:26:45;;;;;;;13.80;7.87;;;8.30;96.30;;;;;;4957774;28;20429;-79
2021/11/13 11:29:12;;;;;;;10.37;8.10;;;8.20;96.30;;;;;;4990343;28;20444;-78
2021/11/13 11:31:44;;;;;;;13.37;8.30;;;8.10;96.30;;;;;;4995188;28;20432;-82
2021/11/13 11:34:30;;;;;;;12.73;8.70;;;8.20;96.30;;;;;;5015460;28;20408;-78
2021/11/13 11:36:58;;;;;;;10.57;7.90;;;8.30;96.30;;;;;;4997927;28;20407;-78
2021/11/13 11:39:25;;;;;;;10.93;8.40;;;8.30;96.30;;;;;;5014062;28;20411;-78
2021/11/13 11:41:53;;;;;;;11.10;8.20;;;8.30;96.30;;;;;;5011786;28;20432;-78
2021/11/13 11:44:19;;;;;;;10.70;7.60;;;8.20;96.30;;;;;;4997101;28;20459;-77
2021/11/13 11:46:45;;;;;;;11.97;7.80;;;8.10;96.30;;;;;;5012635;28;20411;-77
2021/11/13 11:49:12;;;;;;;10.30;7.90;;;8.10;96.30;;;;;;5012706;28;20423;-77
2021/11/13 11:51:39;;;;;;;12.43;8.27;;;8.10;96.30;;;;;;5012341;28;20483;-78
2021/11/13 11:54:06;;;;;;;13.07;7.60;;;8.00;96.30;;;;;;4995461;28;20506;-78
2021/11/13 11:56:33;;;;;;;9.77;6.90;;;8.00;96.30;;;;;;5013130;28;20444;-76
2021/11/13 11:59:01;;;;;;;9.10;7.27;;;7.90;96.30;;;;;;4995943;28;20788;-78
2021/11/13 12:01:29;;;;;;;11.70;7.40;;;7.90;96.30;;;;;;5013938;28;20452;-77
2021/11/13 12:04:14;;;;;;;11.40;8.33;;;7.80;96.30;;;;;;4997277;28;20463;-78
2021/11/13 12:06:45;;;;;;;11.43;7.77;;;7.80;96.30;;;;;;4997887;28;20947;-78
2021/11/13 12:09:11;;;;;;;9.73;7.93;;;7.80;96.30;;;;;;4997421;28;20821;-78
2021/11/13 12:11:37;;;;;;;11.30;7.97;;;7.90;96.30;;;;;;4997172;28;20431;-78
2021/11/13 12:14:23;;;;;;;18.77;11.70;;;7.90;96.30;;;;;;4997355;28;20195;-77
2021/11/13 12:16:49;;;;;;;24.03;8.33;;;8.00;96.30;;;;;;4996526;28;20415;-78
2021/11/13 12:19:15;;;;;;;12.03;8.53;;;8.10;96.30;;;;;;5014381;28;20415;-77
2021/11/13 12:21:55;;;;;;;17.40;11.57;;;8.20;96.30;;;;;;4996518;28;20287;-77
2021/11/13 12:24:21;;;;;;;13.30;9.00;;;8.30;96.30;;;;;;4983795;28;20458;-77
2021/11/13 12:27:01;;;;;;;12.30;8.23;;;8.40;96.30;;;;;;4975090;28;20492;-78
2021/11/13 12:29:28;;;;;;;9.67;7.20;;;8.40;96.30;;;;;;4993949;28;20412;-77
2021/11/13 12:31:58;;;;;;;9.87;6.53;;;8.40;96.30;;;;;;4997160;28;20429;-79
2021/11/13 12:34:34;;;;;;;7.70;6.40;;;8.40;96.30;;;;;;4969484;28;20523;-79
2021/11/13 12:37:08;;;;;;;8.27;7.03;;;8.30;96.30;;;;;;4976939;28;20821;-79
2021/11/13 12:39:46;;;;;;;8.50;6.80;;;8.30;96.30;;;;;;4992685;28;20412;-78
2021/11/13 12:42:26;;;;;;;15.73;13.17;;;8.30;96.30;;;;;;4991932;28;20860;-77
2021/11/13 12:44:57;;;;;;;9.23;6.23;;;8.30;96.30;;;;;;4992476;28;20515;-77
2021/11/13 12:47:34;;;;;;;8.73;6.13;;;8.40;96.30;;;;;;4975482;28;20991;-77
2021/11/13 12:50:07;;;;;;;10.50;7.07;;;8.60;96.30;;;;;;4975022;28;20932;-77
2021/11/13 12:52:47;;;;;;;11.33;6.40;;;8.50;96.30;;;;;;4992481;28;20429;-77
2021/11/13 12:55:37;;;;;;;9.47;6.80;;;8.50;96.30;;;;;;4979055;28;20409;-77
2021/11/13 12:58:07;;;;;;;11.10;7.37;;;8.30;96.30;;;;;;4996796;28;20404;-77
2021/11/13 13:00:41;;;;;;;10.60;7.03;;;8.10;96.30;;;;;;4996311;28;20408;-77
2021/11/13 13:03:14;;;;;;;10.97;6.30;;;8.10;96.30;;;;;;4978424;28;20425;-77
2021/11/13 13:05:40;;;;;;;11.10;7.23;;;8.10;96.30;;;;;;4996352;28;20448;-77
2021/11/13 13:08:06;;;;;;;10.30;7.00;;;8.00;96.30;;;;;;4979587;28;20409;-78
2021/11/13 13:10:33;;;;;;;9.47;6.90;;;8.00;96.30;;;;;;4976915;28;20447;-76
2021/11/13 13:13:03;;;;;;;8.20;6.60;;;7.90;96.30;;;;;;4978527;28;20174;-77
2021/11/13 13:15:29;;;;;;;9.60;6.20;;;7.90;96.30;;;;;;4997148;28;20966;-77
2021/11/13 13:17:55;;;;;;;7.30;6.40;;;8.00;96.30;;;;;;4978797;28;20507;-78
2021/11/13 13:20:31;;;;;;;8.63;6.40;;;8.00;96.30;;;;;;4995886;28;20552;-78
2021/11/13 13:23:05;;;;;;;9.50;6.80;;;8.00;96.30;;;;;;4995469;28;20161;-78
2021/11/13 13:25:34;;;;;;;13.37;8.97;;;7.90;96.30;;;;;;4995857;28;20444;-79
2021/11/13 13:28:03;;;;;;;15.60;9.40;;;7.90;96.30;;;;;;4996107;28;20436;-78
2021/11/13 13:30:30;;;;;;;14.63;10.20;;;7.90;96.30;;;;;;4995746;28;20416;-78
2021/11/13 13:32:57;;;;;;;12.63;9.43;;;7.90;96.30;;;;;;4977703;28;20435;-77
2021/11/13 13:35:23;;;;;;;14.93;9.50;;;7.90;96.30;;;;;;4979334;28;20784;-81
2021/11/13 13:38:00;;;;;;;13.97;8.70;;;7.90;96.30;;;;;;4999617;28;20754;-81
2021/11/13 13:40:33;;;;;;;11.90;8.43;;;7.80;96.30;;;;;;4996882;28;20419;-78
2021/11/13 13:43:32;;;;;;;15.00;9.53;;;7.80;96.30;;;;;;4994879;28;20567;-78
2021/11/13 13:46:18;;;;;;;10.90;8.20;;;7.80;96.30;;;;;;4995500;28;20535;-77
2021/11/13 13:48:55;;;;;;;11.57;8.27;;;7.70;96.30;;;;;;4977943;28;20415;-78
2021/11/13 13:51:31;;;;;;;12.50;7.57;;;7.60;96.30;;;;;;4977299;28;20440;-77
2021/11/13 13:54:06;;;;;;;9.90;7.70;;;7.50;96.30;;;;;;4995465;28;20403;-78
2021/11/13 13:56:36;;;;;;;11.27;8.87;;;7.40;96.30;;;;;;4995330;28;20401;-77
2021/11/13 13:59:05;;;;;;;12.23;8.47;;;7.40;96.30;;;;;;4995283;28;20912;-78
2021/11/13 14:01:33;;;;;;;14.30;9.27;;;7.40;96.30;;;;;;4994662;28;20445;-78
2021/11/13 14:04:11;;;;;;;16.23;9.60;;;7.30;96.30;;;;;;4977389;28;20467;-77
2021/11/13 14:06:37;;;;;;;14.03;9.57;;;7.30;96.30;;;;;;4994959;28;20408;-77
2021/11/13 14:09:05;;;;;;;19.83;13.80;;;7.30;96.30;;;;;;4995110;28;20892;-77
2021/11/13 14:11:30;;;;;;;12.10;9.03;;;7.20;96.30;;;;;;4994108;28;20417;-76
2021/11/13 14:13:56;;;;;;;15.20;10.17;;;7.30;96.30;;;;;;4995062;28;20413;-78
2021/11/13 14:16:22;;;;;;;15.57;11.27;;;7.30;96.30;;;;;;4995768;28;20166;-75
2021/11/13 14:18:49;;;;;;;11.83;8.00;;;7.30;96.30;;;;;;4995261;28;20196;-76
2021/11/13 14:21:20;;;;;;;13.70;8.83;;;7.40;96.30;;;;;;4976653;28;20538;-78
2021/11/13 14:23:47;;;;;;;14.83;10.33;;;7.30;96.30;;;;;;4994894;28;20825;-75
2021/11/13 14:26:21;;;;;;;12.03;8.70;;;7.40;96.30;;;;;;4977243;28;20500;-76
2021/11/13 14:28:57;;;;;;;10.80;7.20;;;7.30;96.30;;;;;;4994843;28;20426;-76
2021/11/13 14:31:27;;;;;;;11.97;7.43;;;7.30;96.30;;;;;;4993931;28;20839;-76
2021/11/13 14:34:15;;;;;;;10.83;7.00;;;7.30;96.30;;;;;;4994580;28;20423;-76
2021/11/13 14:36:46;;;;;;;9.43;8.40;;;7.40;96.30;;;;;;4995643;28;20877;-79
2021/11/13 14:39:17;;;;;;;12.90;8.90;;;7.50;96.30;;;;;;4995638;28;20468;-78
2021/11/13 14:42:14;;;;;;;14.40;9.90;;;7.60;96.30;;;;;;4995623;28;20455;-77
2021/11/13 14:44:42;;;;;;;14.70;8.77;;;7.50;96.30;;;;;;4976470;28;20678;-79
2021/11/13 14:47:12;;;;;;;11.03;7.93;;;7.40;96.30;;;;;;4977194;28;20830;-79
2021/11/13 14:49:41;;;;;;;17.23;11.00;;;7.30;96.30;;;;;;4979811;28;20434;-77
2021/11/13 14:52:13;;;;;;;15.20;9.53;;;7.10;96.30;;;;;;4957307;28;20599;-81
2021/11/13 14:54:53;;;;;;;11.67;8.63;;;7.00;96.30;;;;;;4958653;28;20414;-80
2021/11/13 14:57:19;;;;;;;11.40;8.80;;;7.00;96.30;;;;;;4977643;28;20449;-81
2021/11/13 14:59:44;;;;;;;17.00;8.77;;;6.70;96.30;;;;;;4959564;28;20421;-81
2021/11/13 15:02:19;;;;;;;12.33;8.97;;;6.60;96.30;;;;;;4958115;28;20574;-81
2021/11/13 15:04:49;;;;;;;12.33;9.77;;;6.60;96.30;;;;;;4975367;28;20193;-80
2021/11/13 15:07:16;;;;;;;9.90;7.87;;;6.50;96.30;;;;;;4975461;28;20413;-81
2021/11/13 15:09:56;;;;;;;12.67;9.23;;;6.50;96.30;;;;;;4975674;28;20410;-82
2021/11/13 15:12:24;;;;;;;12.50;9.20;;;6.40;96.30;;;;;;4957459;28;20441;-80
2021/11/13 15:14:53;;;;;;;14.10;9.50;;;6.40;96.30;;;;;;4958096;28;20426;-81
2021/11/13 15:17:23;;;;;;;13.00;9.43;;;6.40;96.30;;;;;;4957175;28;20771;-81
2021/11/13 15:20:03;;;;;;;18.97;9.03;;;6.40;96.30;;;;;;4958183;28;20418;-79
2021/11/13 15:22:36;;;;;;;12.83;10.10;;;6.30;96.30;;;;;;4957014;28;20441;-80
2021/11/13 15:25:25;;;;;;;15.83;10.60;;;6.20;96.30;;;;;;4975145;28;20457;-81
2021/11/13 15:28:07;;;;;;;14.70;11.50;;;6.10;96.30;;;;;;4974975;28;20414;-77
2021/11/13 15:30:41;;;;;;;15.23;11.30;;;6.20;96.30;;;;;;4974254;28;20418;-79
2021/11/13 15:33:15;;;;;;;17.50;10.90;;;6.10;96.30;;;;;;4957985;28;20456;-78
2021/11/13 15:35:47;;;;;;;17.13;13.27;;;6.00;96.30;;;;;;4976861;28;20427;-75
2021/11/13 15:38:20;;;;;;;19.83;13.80;;;5.90;96.30;;;;;;4977068;28;20413;-77
2021/11/13 15:40:47;;;;;;;20.10;15.07;;;5.90;96.30;;;;;;4993387;28;20431;-75
2021/11/13 15:43:13;;;;;;;15.03;10.53;;;5.80;96.30;;;;;;4993284;28;20880;-75
2021/11/13 15:45:48;;;;;;;15.10;10.40;;;5.80;96.30;;;;;;4993982;28;20607;-78
2021/11/13 15:48:16;;;;;;;171.07;88.70;;;5.80;96.30;;;;;;4993522;28;20470;-78
2021/11/13 15:51:03;;;;;;;161.57;100.17;;;5.70;96.30;;;;;;4973170;28;20420;-78
2021/11/13 15:53:57;;;;;;;43.97;33.10;;;5.60;96.30;;;;;;5008802;28;20455;-78
2021/11/13 15:56:29;;;;;;;18.33;13.33;;;5.50;96.30;;;;;;4983516;28;20476;-79
2021/11/13 15:58:58;;;;;;;16.83;12.57;;;5.50;96.30;;;;;;4987171;28;20555;-78
2021/11/13 16:01:37;;;;;;;25.07;15.13;;;5.50;96.30;;;;;;4966587;28;20461;-80
2021/11/13 16:04:05;;;;;;;20.20;13.20;;;5.50;96.30;;;;;;4992419;28;20397;-78
2021/11/13 16:06:31;;;;;;;18.43;12.20;;;5.50;96.30;;;;;;4974172;28;20447;-79
2021/11/13 16:08:56;;;;;;;17.80;11.43;;;5.50;96.30;;;;;;4975541;28;20964;-76
2021/11/13 16:11:22;;;;;;;19.43;12.53;;;5.40;96.30;;;;;;4974452;28;20434;-77
2021/11/13 16:13:47;;;;;;;24.67;14.20;;;5.30;96.30;;;;;;4992683;28;20696;-77
2021/11/13 16:16:13;;;;;;;15.07;11.60;;;5.30;96.30;;;;;;4993120;28;20169;-77
2021/11/13 16:18:40;;;;;;;19.70;12.50;;;5.30;96.30;;;;;;4975120;28;20228;-76
2021/11/13 16:21:06;;;;;;;17.83;12.77;;;5.30;96.30;;;;;;4974507;28;20200;-77
2021/11/13 16:23:32;;;;;;;19.20;12.87;;;5.30;96.30;;;;;;4992124;28;20425;-78
2021/11/13 16:25:58;;;;;;;16.27;10.20;;;5.30;96.30;;;;;;4975093;28;20288;-77
2021/11/13 16:28:25;;;;;;;20.50;13.77;;;5.30;96.30;;;;;;4993006;28;20197;-76
2021/11/13 16:33:26;;;;;;;15.47;11.73;;;5.30;96.30;;;;;;5043127;23;20491;-78
2021/11/13 16:35:54;;;;;;;16.27;11.80;;;5.30;96.30;;;;;;4975168;28;20740;-77
2021/11/13 16:38:25;;;;;;;13.90;11.10;;;5.30;96.30;;;;;;4992386;28;20177;-78
2021/11/13 16:40:58;;;;;;;17.20;11.80;;;5.20;96.30;;;;;;4975159;28;20443;-75
2021/11/13 16:43:26;;;;;;;14.37;10.47;;;5.30;96.30;;;;;;4975157;28;20413;-76
2021/11/13 16:45:55;;;;;;;16.30;11.00;;;5.40;96.30;;;;;;4975066;28;20869;-78
2021/11/13 16:48:24;;;;;;;14.60;10.27;;;5.30;96.30;;;;;;4987120;28;20528;-80
2021/11/13 16:50:50;;;;;;;19.30;11.20;;;5.30;96.30;;;;;;4955221;28;20836;-79
2021/11/13 16:53:18;;;;;;;15.93;11.00;;;5.20;96.30;;;;;;4972640;28;20417;-78
2021/11/13 16:55:46;;;;;;;13.77;10.20;;;5.20;96.30;;;;;;4972845;28;20414;-78
2021/11/13 16:58:12;;;;;;;13.63;10.20;;;5.20;96.30;;;;;;4955473;28;20488;-78
2021/11/13 17:00:38;;;;;;;17.23;10.57;;;5.20;96.30;;;;;;4972806;28;20455;-78